createdAt,value
2018-12-16T00:01:59.051Z,-0.60
2018-12-16T00:04:27.137Z,-0.60
2018-12-16T00:06:55.277Z,-0.60
2018-12-16T00:09:23.365Z,-0.60
2018-12-16T00:11:51.546Z,-0.60
2018-12-16T00:14:19.610Z,-0.60
2018-12-16T00:16:47.781Z,-0.60
2018-12-16T00:19:15.907Z,-0.60
2018-12-16T00:21:44.007Z,-0.60
2018-12-16T00:24:12.095Z,-0.60
2018-12-16T00:26:51.593Z,-0.60
2018-12-16T00:29:19.742Z,-0.60
2018-12-16T00:31:47.855Z,-0.60
2018-12-16T00:34:15.978Z,-0.60
2018-12-16T00:36:44.058Z,-0.70
2018-12-16T00:39:12.188Z,-0.70
2018-12-16T00:41:40.294Z,-0.70
2018-12-16T00:44:08.398Z,-0.70
2018-12-16T00:46:36.479Z,-0.70
2018-12-16T00:49:04.669Z,-0.80
2018-12-16T00:51:32.751Z,-0.70
2018-12-16T00:54:00.950Z,-0.80
2018-12-16T00:56:29.026Z,-0.80
2018-12-16T00:58:57.127Z,-0.80
2018-12-16T01:01:25.175Z,-0.80
2018-12-16T01:03:53.270Z,-0.80
2018-12-16T01:06:21.367Z,-0.80
2018-12-16T01:08:49.494Z,-0.80
2018-12-16T01:11:17.567Z,-0.80
2018-12-16T01:13:45.729Z,-0.90
2018-12-16T01:16:13.946Z,-0.80
2018-12-16T01:18:42.054Z,-0.80
2018-12-16T01:21:10.142Z,-0.80
2018-12-16T01:23:38.207Z,-0.80
2018-12-16T01:26:06.315Z,-0.80
2018-12-16T01:28:34.363Z,-0.90
2018-12-16T01:31:02.426Z,-0.90
2018-12-16T01:33:30.701Z,-0.90
2018-12-16T01:35:58.795Z,-0.90
2018-12-16T01:38:26.922Z,-0.90
2018-12-16T01:40:56.134Z,-0.90
2018-12-16T01:43:24.215Z,-0.90
2018-12-16T01:45:52.210Z,-0.90
2018-12-16T01:48:20.332Z,-0.90
2018-12-16T01:50:48.503Z,-0.90
2018-12-16T01:53:16.522Z,-0.90
2018-12-16T01:55:45.281Z,-0.90
2018-12-16T01:58:13.362Z,-0.90
2018-12-16T02:00:41.463Z,-1.00
2018-12-16T02:03:09.558Z,-1.00
2018-12-16T02:05:37.677Z,-1.00
2018-12-16T02:08:05.854Z,-0.90
2018-12-16T02:10:34.015Z,-0.90
2018-12-16T02:13:02.109Z,-0.90
2018-12-16T02:15:30.249Z,-0.90
2018-12-16T02:17:58.438Z,-0.90
2018-12-16T02:20:26.602Z,-0.90
2018-12-16T02:22:57.044Z,-0.90
2018-12-16T02:25:24.778Z,-0.90
2018-12-16T02:27:52.815Z,-0.90
2018-12-16T02:30:26.298Z,-0.90
2018-12-16T02:32:54.410Z,-0.90
2018-12-16T02:35:22.504Z,-0.90
2018-12-16T02:37:50.751Z,-0.90
2018-12-16T02:40:18.915Z,-0.90
2018-12-16T02:42:47.099Z,-0.90
2018-12-16T02:45:15.283Z,-0.90
2018-12-16T02:47:47.895Z,-1.00
2018-12-16T02:50:16.033Z,-0.90
2018-12-16T02:52:44.226Z,-1.00
2018-12-16T02:55:12.392Z,-0.90
2018-12-16T02:57:40.627Z,-1.00
2018-12-16T03:00:09.684Z,-0.90
2018-12-16T03:02:37.740Z,-1.00
2018-12-16T03:05:05.866Z,-1.00
2018-12-16T03:07:33.959Z,-0.90
2018-12-16T03:10:02.141Z,-0.90
2018-12-16T03:12:30.197Z,-0.90
2018-12-16T03:14:58.289Z,-0.90
2018-12-16T03:17:26.461Z,-0.90
2018-12-16T03:19:54.593Z,-0.90
2018-12-16T03:22:22.623Z,-0.90
2018-12-16T03:24:50.751Z,-0.90
2018-12-16T03:27:18.815Z,-0.90
2018-12-16T03:29:46.923Z,-0.90
2018-12-16T03:32:15.065Z,-0.90
2018-12-16T03:34:43.273Z,-0.80
2018-12-16T03:37:11.358Z,-0.90
2018-12-16T03:39:39.547Z,-0.90
2018-12-16T03:42:07.764Z,-0.80
2018-12-16T03:44:35.931Z,-0.90
2018-12-16T03:47:04.072Z,-0.80
2018-12-16T03:49:32.199Z,-0.80
2018-12-16T03:52:00.267Z,-0.80
2018-12-16T03:54:28.358Z,-0.80
2018-12-16T03:56:56.419Z,-0.80
2018-12-16T03:59:24.578Z,-0.80
2018-12-16T04:01:56.930Z,-0.80
2018-12-16T04:04:26.052Z,-0.80
2018-12-16T04:06:54.588Z,-0.80
2018-12-16T04:09:22.818Z,-0.80
2018-12-16T04:11:50.890Z,-0.80
2018-12-16T04:14:19.052Z,-0.80
2018-12-16T04:16:47.139Z,-0.80
2018-12-16T04:19:15.211Z,-0.80
2018-12-16T04:21:43.545Z,-0.80
2018-12-16T04:24:11.695Z,-0.80
2018-12-16T04:26:39.819Z,-0.80
2018-12-16T04:29:07.974Z,-0.80
2018-12-16T04:31:36.082Z,-0.80
2018-12-16T04:34:04.132Z,-0.80
2018-12-16T04:36:32.296Z,-0.80
2018-12-16T04:39:00.357Z,-0.80
2018-12-16T04:41:28.536Z,-0.80
2018-12-16T04:43:56.666Z,-0.80
2018-12-16T04:46:24.750Z,-0.80
2018-12-16T04:48:52.887Z,-0.80
2018-12-16T04:51:21.027Z,-0.70
2018-12-16T04:53:49.128Z,-0.70
2018-12-16T04:56:17.223Z,-0.70
2018-12-16T04:58:45.738Z,-0.70
2018-12-16T05:01:13.822Z,-0.80
2018-12-16T05:03:42.060Z,-0.70
2018-12-16T05:06:10.114Z,-0.70
2018-12-16T05:08:38.186Z,-0.70
2018-12-16T05:11:06.337Z,-0.60
2018-12-16T05:13:34.475Z,-0.60
2018-12-16T05:16:02.536Z,-0.60
2018-12-16T05:18:30.705Z,-0.60
2018-12-16T05:20:58.790Z,-0.60
2018-12-16T05:23:26.863Z,-0.50
2018-12-16T05:25:54.967Z,-0.60
2018-12-16T05:28:22.985Z,-0.50
2018-12-16T05:30:51.126Z,-0.50
2018-12-16T05:33:19.216Z,-0.50
2018-12-16T05:35:47.300Z,-0.50
2018-12-16T05:38:15.355Z,-0.50
2018-12-16T05:40:43.412Z,-0.50
2018-12-16T05:43:11.426Z,-0.50
2018-12-16T05:45:39.580Z,-0.50
2018-12-16T05:48:07.607Z,-0.50
2018-12-16T05:50:35.677Z,-0.40
2018-12-16T05:53:03.822Z,-0.50
2018-12-16T05:55:31.895Z,-0.50
2018-12-16T05:57:59.942Z,-0.50
2018-12-16T06:00:28.009Z,-0.50
2018-12-16T06:02:56.156Z,-0.40
2018-12-16T06:05:24.170Z,-0.50
2018-12-16T06:07:52.256Z,-0.40
2018-12-16T06:10:20.491Z,-0.40
2018-12-16T06:12:48.577Z,-0.40
2018-12-16T06:15:16.681Z,-0.40
2018-12-16T06:17:44.718Z,-0.40
2018-12-16T06:20:12.837Z,-0.40
2018-12-16T06:22:40.903Z,-0.40
2018-12-16T06:25:09.020Z,-0.40
2018-12-16T06:27:37.154Z,-0.40
2018-12-16T06:30:08.782Z,-0.40
2018-12-16T06:32:36.723Z,-0.40
2018-12-16T06:35:04.895Z,-0.40
2018-12-16T06:37:32.907Z,-0.40
2018-12-16T06:40:00.985Z,-0.40
2018-12-16T06:42:29.184Z,-0.40
2018-12-16T06:44:57.256Z,-0.40
2018-12-16T06:47:25.343Z,-0.40
2018-12-16T06:49:53.548Z,-0.40
2018-12-16T06:52:21.636Z,-0.40
2018-12-16T06:54:49.931Z,-0.40
2018-12-16T06:57:17.971Z,-0.40
2018-12-16T06:59:46.074Z,-0.40
2018-12-16T07:02:14.201Z,-0.40
2018-12-16T07:04:42.402Z,-0.30
2018-12-16T07:07:10.553Z,-0.40
2018-12-16T07:09:38.624Z,-0.40
2018-12-16T07:12:06.789Z,-0.30
2018-12-16T07:14:34.883Z,-0.40
2018-12-16T07:17:02.955Z,-0.30
2018-12-16T07:19:30.987Z,-0.30
2018-12-16T07:21:59.099Z,-0.30
2018-12-16T07:24:27.186Z,-0.30
2018-12-16T07:26:55.350Z,-0.30
2018-12-16T07:29:23.453Z,-0.30
2018-12-16T07:31:51.658Z,-0.20
2018-12-16T07:34:19.839Z,-0.30
2018-12-16T07:36:48.057Z,-0.30
2018-12-16T07:39:16.239Z,-0.30
2018-12-16T07:41:44.347Z,-0.30
2018-12-16T07:44:12.432Z,-0.30
2018-12-16T07:46:40.597Z,-0.30
2018-12-16T07:49:09.478Z,-0.30
2018-12-16T07:51:37.570Z,-0.30
2018-12-16T07:54:05.743Z,-0.30
2018-12-16T07:56:33.925Z,-0.30
2018-12-16T07:59:02.063Z,-0.30
2018-12-16T08:01:30.231Z,-0.20
2018-12-16T08:03:58.399Z,-0.20
2018-12-16T08:06:26.583Z,-0.20
2018-12-16T08:08:54.737Z,-0.20
2018-12-16T08:11:22.711Z,-0.10
2018-12-16T08:13:50.899Z,-0.20
2018-12-16T08:16:18.994Z,-0.10
2018-12-16T08:18:47.036Z,-0.20
2018-12-16T08:21:15.130Z,-0.10
2018-12-16T08:23:43.284Z,-0.10
2018-12-16T08:26:11.335Z,-0.10
2018-12-16T08:28:39.444Z,-0.10
2018-12-16T08:31:07.613Z,-0.10
2018-12-16T08:33:35.772Z,-0.20
2018-12-16T08:36:03.866Z,-0.10
2018-12-16T08:38:31.907Z,-0.10
2018-12-16T08:41:00.111Z,-0.10
2018-12-16T08:43:28.319Z,0.00
2018-12-16T08:45:56.407Z,0.00
2018-12-16T08:48:24.441Z,0.00
2018-12-16T08:50:52.554Z,0.00
2018-12-16T08:53:20.686Z,0.10
2018-12-16T08:55:48.764Z,0.10
2018-12-16T08:58:16.856Z,0.10
2018-12-16T09:00:44.921Z,0.10
2018-12-16T09:03:13.037Z,0.10
2018-12-16T09:05:41.109Z,0.10
2018-12-16T09:08:09.166Z,0.10
2018-12-16T09:10:37.271Z,0.10
2018-12-16T09:13:05.347Z,0.20
2018-12-16T09:15:33.508Z,0.20
2018-12-16T09:18:01.492Z,0.20
2018-12-16T09:20:29.594Z,0.20
2018-12-16T09:22:57.695Z,0.20
2018-12-16T09:25:25.718Z,0.20
2018-12-16T09:27:53.966Z,0.30
2018-12-16T09:30:22.090Z,0.30
2018-12-16T09:32:50.170Z,0.30
2018-12-16T09:35:18.271Z,0.30
2018-12-16T09:37:46.353Z,0.30
2018-12-16T09:40:14.446Z,0.30
2018-12-16T09:42:42.651Z,0.40
2018-12-16T09:45:10.722Z,0.40
2018-12-16T09:47:39.192Z,0.30
2018-12-16T09:50:07.390Z,0.40
2018-12-16T09:52:35.564Z,0.40
2018-12-16T09:55:10.622Z,0.40
2018-12-16T09:57:38.742Z,0.40
2018-12-16T10:00:08.660Z,0.40
2018-12-16T10:02:36.726Z,0.40
2018-12-16T10:05:05.545Z,0.40
2018-12-16T10:07:33.646Z,0.40
2018-12-16T10:10:01.687Z,0.50
2018-12-16T10:12:29.875Z,0.50
2018-12-16T10:14:58.029Z,0.40
2018-12-16T10:17:26.168Z,0.40
2018-12-16T10:19:54.375Z,0.40
2018-12-16T10:22:22.450Z,0.50
2018-12-16T10:24:51.434Z,0.50
2018-12-16T10:27:19.938Z,0.40
2018-12-16T10:29:48.157Z,0.50
2018-12-16T10:32:16.225Z,0.50
2018-12-16T10:34:44.463Z,0.60
2018-12-16T10:37:12.547Z,0.60
2018-12-16T10:39:40.591Z,0.60
2018-12-16T10:42:08.971Z,0.60
2018-12-16T10:44:37.157Z,0.60
2018-12-16T10:47:05.271Z,0.60
2018-12-16T10:49:33.354Z,0.60
2018-12-16T10:52:01.466Z,0.60
2018-12-16T10:54:29.543Z,0.50
2018-12-16T10:56:57.652Z,0.50
2018-12-16T10:59:25.812Z,0.50
2018-12-16T11:01:53.922Z,0.60
2018-12-16T11:04:22.046Z,0.60
2018-12-16T11:06:50.140Z,0.60
2018-12-16T11:09:18.373Z,0.60
2018-12-16T11:11:46.415Z,0.70
2018-12-16T11:14:14.611Z,0.70
2018-12-16T11:16:42.662Z,0.80
2018-12-16T11:19:10.750Z,0.80
2018-12-16T11:21:38.928Z,0.80
2018-12-16T11:24:06.979Z,0.80
2018-12-16T11:26:35.583Z,0.80
2018-12-16T11:29:03.717Z,0.80
2018-12-16T11:31:31.817Z,0.90
2018-12-16T11:34:00.703Z,0.80
2018-12-16T11:36:28.839Z,0.80
2018-12-16T11:38:56.860Z,0.80
2018-12-16T11:41:25.034Z,0.80
2018-12-16T11:43:53.049Z,0.80
2018-12-16T11:46:21.192Z,0.80
2018-12-16T11:48:49.330Z,0.70
2018-12-16T11:51:17.515Z,0.70
2018-12-16T11:53:45.525Z,0.80
2018-12-16T11:56:13.914Z,0.90
2018-12-16T11:58:42.130Z,0.90
2018-12-16T12:01:10.203Z,0.80
2018-12-16T12:03:38.248Z,0.80
2018-12-16T12:06:06.338Z,0.90
2018-12-16T12:08:34.426Z,0.90
2018-12-16T12:11:02.474Z,0.90
2018-12-16T12:13:30.616Z,0.90
2018-12-16T12:15:58.724Z,0.90
2018-12-16T12:18:26.822Z,0.90
2018-12-16T12:20:54.994Z,0.80
2018-12-16T12:23:23.259Z,0.80
2018-12-16T12:25:51.334Z,0.90
2018-12-16T12:28:19.730Z,0.80
2018-12-16T12:30:47.878Z,0.90
2018-12-16T12:33:16.171Z,0.90
2018-12-16T12:35:44.336Z,1.00
2018-12-16T12:38:12.503Z,1.00
2018-12-16T12:40:40.593Z,0.90
2018-12-16T12:43:08.653Z,0.80
2018-12-16T12:45:36.823Z,0.80
2018-12-16T12:48:04.976Z,0.80
2018-12-16T12:50:33.045Z,0.90
2018-12-16T12:53:01.346Z,0.80
2018-12-16T12:55:29.368Z,0.80
2018-12-16T12:57:57.425Z,0.80
2018-12-16T13:00:25.813Z,0.90
2018-12-16T13:02:54.097Z,0.80
2018-12-16T13:05:22.511Z,0.80
2018-12-16T13:07:50.549Z,0.80
2018-12-16T13:10:18.594Z,0.80
2018-12-16T13:12:46.702Z,0.70
2018-12-16T13:15:14.878Z,0.80
2018-12-16T13:17:43.002Z,0.80
2018-12-16T13:20:11.154Z,0.80
2018-12-16T13:22:39.303Z,0.70
2018-12-16T13:25:18.939Z,0.70
2018-12-16T13:27:46.987Z,0.80
2018-12-16T13:30:15.124Z,0.90
2018-12-16T13:32:43.373Z,1.00
2018-12-16T13:35:11.557Z,0.90
2018-12-16T13:37:39.672Z,0.80
2018-12-16T13:40:08.346Z,0.80
2018-12-16T13:42:36.649Z,0.80
2018-12-16T13:45:05.886Z,0.80
2018-12-16T13:47:33.983Z,0.90
2018-12-16T13:50:02.105Z,0.80
2018-12-16T13:52:30.285Z,0.70
2018-12-16T13:54:58.431Z,0.70
2018-12-16T13:57:26.578Z,0.70
2018-12-16T13:59:54.662Z,0.70
2018-12-16T14:02:22.773Z,0.70
2018-12-16T14:04:50.859Z,0.70
2018-12-16T14:07:19.002Z,0.70
2018-12-16T14:09:47.043Z,0.70
2018-12-16T14:12:15.142Z,0.80
2018-12-16T14:14:45.062Z,1.00
2018-12-16T14:17:13.393Z,0.90
2018-12-16T14:19:41.531Z,1.40
2018-12-16T14:22:09.640Z,1.10
2018-12-16T14:24:37.787Z,0.80
2018-12-16T14:27:05.892Z,0.80
2018-12-16T14:29:34.067Z,0.60
2018-12-16T14:32:02.226Z,0.60
2018-12-16T14:34:30.971Z,0.60
2018-12-16T14:36:59.104Z,0.60
2018-12-16T14:39:27.150Z,0.70
2018-12-16T14:41:55.302Z,0.70
2018-12-16T14:44:23.325Z,0.60
2018-12-16T14:46:51.398Z,0.60
2018-12-16T14:49:19.426Z,0.70
2018-12-16T14:51:47.565Z,0.60
2018-12-16T14:54:15.707Z,0.60
2018-12-16T14:56:43.875Z,0.50
2018-12-16T14:59:12.027Z,0.50
2018-12-16T15:01:40.133Z,0.50
2018-12-16T15:04:08.286Z,0.50
2018-12-16T15:06:36.407Z,0.40
2018-12-16T15:09:06.758Z,0.50
2018-12-16T15:11:34.851Z,0.50
2018-12-16T15:14:03.084Z,0.50
2018-12-16T15:16:31.119Z,0.50
2018-12-16T15:18:59.256Z,0.50
2018-12-16T15:21:27.927Z,0.50
2018-12-16T15:23:56.034Z,0.50
2018-12-16T15:26:24.102Z,0.50
2018-12-16T15:28:52.205Z,0.50
2018-12-16T15:31:20.350Z,0.50
2018-12-16T15:33:48.485Z,0.40
2018-12-16T15:36:16.609Z,0.30
2018-12-16T15:38:44.660Z,0.30
2018-12-16T15:41:12.705Z,0.30
2018-12-16T15:43:40.816Z,0.30
2018-12-16T15:46:09.542Z,0.30
2018-12-16T15:48:37.851Z,0.30
2018-12-16T15:51:06.023Z,0.40
2018-12-16T15:53:34.204Z,0.40
2018-12-16T15:56:09.081Z,0.40
2018-12-16T15:58:32.392Z,0.40
2018-12-16T16:01:00.493Z,0.30
2018-12-16T16:03:28.583Z,0.40
2018-12-16T16:05:56.702Z,0.40
2018-12-16T16:08:24.768Z,0.40
2018-12-16T16:10:53.052Z,0.40
2018-12-16T16:13:21.305Z,0.30
2018-12-16T16:15:49.434Z,0.30
2018-12-16T16:18:18.038Z,0.40
2018-12-16T16:20:46.131Z,0.40
2018-12-16T16:23:14.307Z,0.40
2018-12-16T16:25:42.263Z,0.40
2018-12-16T16:28:10.348Z,0.40
2018-12-16T16:30:38.449Z,0.40
2018-12-16T16:33:06.626Z,0.40
2018-12-16T16:35:34.710Z,0.50
2018-12-16T16:38:03.041Z,0.50
2018-12-16T16:40:31.546Z,0.50
2018-12-16T16:42:59.677Z,0.60
2018-12-16T16:45:27.667Z,0.60
2018-12-16T16:47:55.759Z,0.60
2018-12-16T16:50:23.921Z,0.60
2018-12-16T16:52:51.995Z,0.50
2018-12-16T16:55:20.143Z,0.60
2018-12-16T16:57:48.233Z,0.60
2018-12-16T17:00:16.361Z,0.60
2018-12-16T17:02:44.556Z,0.70
2018-12-16T17:05:12.601Z,0.70
2018-12-16T17:07:40.710Z,0.70
2018-12-16T17:10:08.912Z,0.70
2018-12-16T17:12:36.986Z,0.60
2018-12-16T17:15:05.592Z,0.60
2018-12-16T17:17:33.722Z,0.60
2018-12-16T17:20:01.791Z,0.70
2018-12-16T17:22:29.882Z,0.80
2018-12-16T17:24:57.987Z,0.80
2018-12-16T17:27:26.075Z,0.80
2018-12-16T17:29:54.254Z,0.80
2018-12-16T17:32:22.355Z,0.80
2018-12-16T17:34:50.502Z,0.70
2018-12-16T17:37:18.504Z,0.70
2018-12-16T17:39:46.603Z,0.70
2018-12-16T17:42:14.716Z,0.70
2018-12-16T17:44:42.802Z,0.80
2018-12-16T17:47:10.924Z,0.70
2018-12-16T17:49:39.018Z,0.70
2018-12-16T17:52:07.067Z,0.60
2018-12-16T17:54:35.175Z,0.70
2018-12-16T17:57:03.294Z,0.60
2018-12-16T17:59:31.386Z,0.70
2018-12-16T18:01:59.797Z,0.70
2018-12-16T18:04:28.066Z,0.70
2018-12-16T18:06:56.235Z,0.70
2018-12-16T18:09:24.412Z,0.70
2018-12-16T18:11:52.652Z,0.70
2018-12-16T18:14:20.765Z,0.70
2018-12-16T18:16:48.839Z,0.70
2018-12-16T18:19:17.075Z,0.60
2018-12-16T18:21:45.100Z,0.70
2018-12-16T18:24:13.239Z,0.70
2018-12-16T18:26:44.276Z,0.70
2018-12-16T18:29:11.486Z,0.70
2018-12-16T18:31:39.542Z,0.60
2018-12-16T18:34:07.643Z,0.60
2018-12-16T18:36:35.731Z,0.60
2018-12-16T18:39:05.902Z,0.60
2018-12-16T18:41:34.008Z,0.50
2018-12-16T18:44:02.130Z,0.60
2018-12-16T18:46:30.757Z,0.60
2018-12-16T18:48:58.834Z,0.50
2018-12-16T18:51:27.074Z,0.50
2018-12-16T18:53:55.182Z,0.50
2018-12-16T18:56:23.199Z,0.50
2018-12-16T18:58:51.272Z,0.50
2018-12-16T19:01:19.357Z,0.50
2018-12-16T19:03:47.536Z,0.50
2018-12-16T19:06:15.674Z,0.50
2018-12-16T19:08:43.913Z,0.50
2018-12-16T19:11:12.054Z,0.50
2018-12-16T19:13:40.195Z,0.50
2018-12-16T19:16:08.230Z,0.50
2018-12-16T19:18:36.414Z,0.50
2018-12-16T19:21:04.542Z,0.60
2018-12-16T19:23:32.622Z,0.60
2018-12-16T19:26:00.783Z,0.60
2018-12-16T19:28:28.903Z,0.70
2018-12-16T19:30:57.101Z,0.70
2018-12-16T19:33:25.312Z,0.70
2018-12-16T19:35:53.417Z,0.60
2018-12-16T19:38:21.549Z,0.70
2018-12-16T19:40:49.651Z,0.70
2018-12-16T19:43:17.855Z,0.70
2018-12-16T19:45:45.974Z,0.70
2018-12-16T19:48:14.058Z,0.70
2018-12-16T19:50:42.159Z,0.80
2018-12-16T19:53:10.896Z,0.80
2018-12-16T19:55:38.971Z,0.80
2018-12-16T19:58:07.248Z,0.80
2018-12-16T20:00:35.342Z,0.80
2018-12-16T20:03:03.428Z,0.70
2018-12-16T20:05:33.519Z,0.70
2018-12-16T20:08:01.710Z,0.80
2018-12-16T20:10:29.793Z,0.80
2018-12-16T20:12:57.855Z,0.80
2018-12-16T20:15:26.052Z,0.80
2018-12-16T20:17:54.290Z,0.90
2018-12-16T20:20:22.417Z,0.90
2018-12-16T20:22:50.522Z,0.80
2018-12-16T20:25:18.583Z,0.80
2018-12-16T20:27:47.192Z,0.80
2018-12-16T20:30:15.292Z,0.90
2018-12-16T20:32:43.407Z,0.90
2018-12-16T20:35:11.651Z,0.90
2018-12-16T20:37:40.035Z,0.90
2018-12-16T20:40:08.290Z,1.00
2018-12-16T20:42:37.243Z,0.90
2018-12-16T20:45:06.478Z,1.00
2018-12-16T20:47:34.559Z,1.00
2018-12-16T20:50:02.832Z,1.10
2018-12-16T20:52:30.896Z,1.00
2018-12-16T20:54:59.053Z,1.00
2018-12-16T20:57:27.047Z,1.00
2018-12-16T20:59:55.116Z,1.00
2018-12-16T21:02:23.210Z,1.00
2018-12-16T21:04:51.302Z,1.00
2018-12-16T21:07:19.339Z,1.10
2018-12-16T21:09:47.486Z,1.10
2018-12-16T21:12:21.028Z,1.10
2018-12-16T21:14:54.650Z,1.20
2018-12-16T21:17:28.179Z,1.20
2018-12-16T21:19:56.399Z,1.20
2018-12-16T21:22:24.466Z,1.20
2018-12-16T21:24:52.670Z,1.30
2018-12-16T21:27:25.956Z,1.30
2018-12-16T21:29:50.919Z,1.30
2018-12-16T21:32:18.930Z,1.20
2018-12-16T21:34:47.238Z,1.20
2018-12-16T21:37:15.347Z,1.30
2018-12-16T21:39:43.436Z,1.30
2018-12-16T21:42:11.495Z,1.30
2018-12-16T21:44:40.689Z,1.30
2018-12-16T21:47:08.759Z,1.30
2018-12-16T21:49:37.791Z,1.40
2018-12-16T21:52:05.890Z,1.40
2018-12-16T21:54:40.607Z,1.40
2018-12-16T21:57:08.731Z,1.50
2018-12-16T21:59:38.115Z,1.50
2018-12-16T22:02:06.262Z,1.60
2018-12-16T22:04:34.401Z,1.50
2018-12-16T22:07:02.455Z,1.50
2018-12-16T22:09:30.666Z,1.50
2018-12-16T22:11:58.730Z,1.50
2018-12-16T22:14:26.844Z,1.50
2018-12-16T22:16:55.066Z,1.50
2018-12-16T22:19:23.208Z,1.60
2018-12-16T22:21:51.380Z,1.60
2018-12-16T22:24:19.529Z,1.60
2018-12-16T22:26:47.601Z,1.60
2018-12-16T22:29:15.662Z,1.60
2018-12-16T22:31:43.749Z,1.60
2018-12-16T22:34:11.774Z,1.60
2018-12-16T22:36:39.867Z,1.60
2018-12-16T22:39:08.182Z,1.60
2018-12-16T22:41:36.916Z,1.60
2018-12-16T22:44:05.060Z,1.60
2018-12-16T22:46:33.579Z,1.50
2018-12-16T22:49:01.657Z,1.60
2018-12-16T22:51:30.473Z,1.60
2018-12-16T22:53:58.534Z,1.60
2018-12-16T22:56:26.614Z,1.60
2018-12-16T22:58:54.773Z,1.60
2018-12-16T23:01:22.859Z,1.70
2018-12-16T23:03:51.030Z,1.70
2018-12-16T23:06:19.200Z,1.70
2018-12-16T23:08:47.396Z,1.70
2018-12-16T23:11:15.482Z,1.70
2018-12-16T23:13:43.526Z,1.70
2018-12-16T23:16:11.597Z,1.70
2018-12-16T23:18:40.569Z,1.70
2018-12-16T23:21:08.662Z,1.70
2018-12-16T23:23:36.738Z,1.70
2018-12-16T23:26:04.886Z,1.70
2018-12-16T23:28:33.043Z,1.70
2018-12-16T23:31:01.086Z,1.80
2018-12-16T23:33:29.157Z,1.80
2018-12-16T23:35:57.311Z,1.70
2018-12-16T23:38:25.964Z,1.80
2018-12-16T23:40:54.026Z,1.80
2018-12-16T23:43:22.124Z,1.80
2018-12-16T23:45:50.176Z,1.80
2018-12-16T23:48:18.341Z,1.80
2018-12-16T23:50:46.409Z,1.80
2018-12-16T23:53:14.514Z,1.80
2018-12-16T23:55:42.605Z,1.80
2018-12-16T23:58:10.682Z,1.80
